createdAt,value
2019-02-06T00:00:03.029Z,-3.8
2019-02-06T00:01:02.955Z,-3.8
2019-02-06T00:02:03.265Z,-3.8
2019-02-06T00:03:03.596Z,-3.8
2019-02-06T00:04:04.116Z,-3.8
2019-02-06T00:05:16.462Z,-3.7
2019-02-06T00:06:03.053Z,-3.8
2019-02-06T00:07:03.167Z,-3.8
2019-02-06T00:08:03.174Z,-3.9
2019-02-06T00:09:03.113Z,-3.8
2019-02-06T00:10:03.077Z,-3.9
2019-02-06T00:11:04.040Z,-3.9
2019-02-06T00:12:03.412Z,-3.9
2019-02-06T00:13:02.963Z,-3.9
2019-02-06T00:14:03.161Z,-3.9
2019-02-06T00:15:02.944Z,-3.8
2019-02-06T00:16:03.857Z,-3.9
2019-02-06T00:17:03.557Z,-3.8
2019-02-06T00:18:04.409Z,-3.8
2019-02-06T00:19:03.122Z,-3.8
2019-02-06T00:20:03.173Z,-3.7
2019-02-06T00:21:02.880Z,-3.8
2019-02-06T00:22:02.879Z,-3.8
2019-02-06T00:23:03.215Z,-3.8
2019-02-06T00:24:03.446Z,-3.8
2019-02-06T00:25:03.552Z,-3.8
2019-02-06T00:26:03.517Z,-3.8
2019-02-06T00:27:03.213Z,-3.9
2019-02-06T00:28:03.512Z,-3.9
2019-02-06T00:29:03.560Z,-3.9
2019-02-06T00:30:03.250Z,-3.9
2019-02-06T00:31:03.318Z,-3.9
2019-02-06T00:32:03.049Z,-4
2019-02-06T00:33:02.822Z,-4.1
2019-02-06T00:34:03.929Z,-4.1
2019-02-06T00:35:02.852Z,-3.9
2019-02-06T00:36:03.432Z,-4
2019-02-06T00:37:02.704Z,-4
2019-02-06T00:38:05.929Z,-4
2019-02-06T00:39:02.953Z,-4
2019-02-06T00:40:03.700Z,-4.1
2019-02-06T00:41:02.573Z,-4
2019-02-06T00:42:03.893Z,-3.9
2019-02-06T00:43:03.113Z,-3.9
2019-02-06T00:44:03.458Z,-3.9
2019-02-06T00:45:03.901Z,-3.9
2019-02-06T00:46:03.022Z,-3.9
2019-02-06T00:47:03.535Z,-3.9
2019-02-06T00:48:03.646Z,-3.9
2019-02-06T00:49:03.868Z,-3.9
2019-02-06T00:50:03.391Z,-4.1
2019-02-06T00:51:03.703Z,-4.2
2019-02-06T00:52:03.318Z,-4.2
2019-02-06T00:53:03.677Z,-4.2
2019-02-06T00:54:03.941Z,-4.3
2019-02-06T00:55:03.462Z,-4.2
2019-02-06T00:56:03.756Z,-4.2
2019-02-06T00:57:03.522Z,-4.1
2019-02-06T00:58:02.988Z,-4.2
2019-02-06T00:59:02.909Z,-4.1
2019-02-06T01:00:03.766Z,-4.1
2019-02-06T01:01:03.314Z,-4
2019-02-06T01:02:03.395Z,-4
2019-02-06T01:03:03.244Z,-4
2019-02-06T01:04:02.894Z,-4
2019-02-06T01:05:03.923Z,-4.1
2019-02-06T01:06:02.999Z,-4.1
2019-02-06T01:07:03.918Z,-4.1
2019-02-06T01:08:03.361Z,-4.1
2019-02-06T01:09:03.533Z,-4.1
2019-02-06T01:10:02.903Z,-4
2019-02-06T01:11:03.263Z,-3.9
2019-02-06T01:12:03.767Z,-3.9
2019-02-06T01:13:03.221Z,-4
2019-02-06T01:14:03.739Z,-3.9
2019-02-06T01:15:03.363Z,-4
2019-02-06T01:16:03.476Z,-4
2019-02-06T01:17:03.294Z,-4
2019-02-06T01:18:02.993Z,-3.9
2019-02-06T01:19:02.973Z,-3.9
2019-02-06T01:20:04.359Z,-3.9
2019-02-06T01:21:03.731Z,-3.9
2019-02-06T01:22:02.652Z,-3.9
2019-02-06T01:23:03.023Z,-4.1
2019-02-06T01:24:03.796Z,-4.1
2019-02-06T01:25:03.178Z,-4
2019-02-06T01:26:03.130Z,-4.1
2019-02-06T01:27:03.288Z,-4
2019-02-06T01:28:03.250Z,-4.1
2019-02-06T01:29:03.609Z,-4.1
2019-02-06T01:30:03.552Z,-4.1
2019-02-06T01:31:02.831Z,-4.2
2019-02-06T01:32:03.013Z,-4.1
2019-02-06T01:33:03.740Z,-4.1
2019-02-06T01:34:03.603Z,-4.1
2019-02-06T01:35:03.961Z,-4.1
2019-02-06T01:36:02.664Z,-4.1
2019-02-06T01:37:03.092Z,-4.1
2019-02-06T01:38:03.047Z,-4.1
2019-02-06T01:39:03.780Z,-4.2
2019-02-06T01:40:03.988Z,-4.1
2019-02-06T01:41:02.883Z,-4.2
2019-02-06T01:42:03.783Z,-4.3
2019-02-06T01:43:03.203Z,-4.2
2019-02-06T01:44:03.072Z,-4.1
2019-02-06T01:45:03.162Z,-4.1
2019-02-06T01:46:03.507Z,-4.1
2019-02-06T01:47:03.122Z,-4.1
2019-02-06T01:48:03.097Z,-4.1
2019-02-06T01:49:03.703Z,-4.1
2019-02-06T01:50:03.673Z,-4.1
2019-02-06T01:51:02.796Z,-4.2
2019-02-06T01:52:03.104Z,-4.3
2019-02-06T01:53:03.427Z,-4.2
2019-02-06T01:54:03.639Z,-4.1
2019-02-06T01:55:04.012Z,-4.1
2019-02-06T01:56:03.595Z,-4.2
2019-02-06T01:57:03.598Z,-4.2
2019-02-06T01:58:03.336Z,-4.1
2019-02-06T01:59:03.209Z,-4.1
2019-02-06T02:00:03.073Z,-4.1
2019-02-06T02:01:02.770Z,-4.1
2019-02-06T02:02:04.357Z,-4.1
2019-02-06T02:03:02.659Z,-4.1
2019-02-06T02:04:03.402Z,-4
2019-02-06T02:05:03.432Z,-4.1
2019-02-06T02:06:03.047Z,-4
2019-02-06T02:07:02.863Z,-4.1
2019-02-06T02:08:02.941Z,-4.1
2019-02-06T02:09:02.836Z,-4.1
2019-02-06T02:10:03.866Z,-4.2
2019-02-06T02:11:03.033Z,-4.2
2019-02-06T02:12:03.794Z,-4.1
2019-02-06T02:13:03.378Z,-4.1
2019-02-06T02:14:02.783Z,-4.2
2019-02-06T02:15:03.235Z,-4.3
2019-02-06T02:16:02.917Z,-4.2
2019-02-06T02:17:03.429Z,-4.1
2019-02-06T02:18:02.943Z,-4
2019-02-06T02:19:03.042Z,-3.9
2019-02-06T02:20:04.018Z,-4
2019-02-06T02:21:02.862Z,-4.1
2019-02-06T02:22:03.302Z,-4.1
2019-02-06T02:23:03.656Z,-4.1
2019-02-06T02:24:02.943Z,-4.1
2019-02-06T02:25:03.232Z,-4.1
2019-02-06T02:26:03.506Z,-4.1
2019-02-06T02:27:03.084Z,-4.1
2019-02-06T02:28:03.859Z,-4
2019-02-06T02:29:03.215Z,-4.1
2019-02-06T02:30:03.343Z,-4.1
2019-02-06T02:31:02.893Z,-3.9
2019-02-06T02:32:02.935Z,-3.9
2019-02-06T02:33:03.738Z,-4.1
2019-02-06T02:34:03.504Z,-4
2019-02-06T02:35:03.597Z,-4
2019-02-06T02:36:16.786Z,-4
2019-02-06T02:37:02.958Z,-4
2019-02-06T02:38:03.589Z,-4.2
2019-02-06T02:39:03.709Z,-4.1
2019-02-06T02:40:02.898Z,-4
2019-02-06T02:41:03.266Z,-4
2019-02-06T02:42:02.825Z,-3.9
2019-02-06T02:43:03.307Z,-4
2019-02-06T02:44:03.070Z,-4
2019-02-06T02:45:03.293Z,-4.1
2019-02-06T02:46:02.969Z,-4.1
2019-02-06T02:47:02.941Z,-4
2019-02-06T02:48:03.738Z,-4.1
2019-02-06T02:49:02.737Z,-4
2019-02-06T02:50:03.645Z,-4
2019-02-06T02:51:03.423Z,-3.9
2019-02-06T02:52:03.414Z,-4
2019-02-06T02:53:03.431Z,-4.1
2019-02-06T02:54:03.154Z,-4.1
2019-02-06T02:55:03.042Z,-4.1
2019-02-06T02:56:04.180Z,-4.1
2019-02-06T02:57:03.150Z,-4
2019-02-06T02:58:03.374Z,-3.9
2019-02-06T02:59:02.858Z,-4.1
2019-02-06T03:00:03.770Z,-4
2019-02-06T03:01:03.116Z,-3.9
2019-02-06T03:02:03.950Z,-3.9
2019-02-06T03:03:02.600Z,-4
2019-02-06T03:04:03.457Z,-4
2019-02-06T03:05:03.436Z,-4
2019-02-06T03:06:03.299Z,-4
2019-02-06T03:07:03.700Z,-4
2019-02-06T03:08:02.887Z,-3.9
2019-02-06T03:09:03.294Z,-3.9
2019-02-06T03:10:02.898Z,-3.9
2019-02-06T03:11:03.407Z,-3.9
2019-02-06T03:12:03.059Z,-3.9
2019-02-06T03:13:03.433Z,-4
2019-02-06T03:14:03.874Z,-4.1
2019-02-06T03:15:03.545Z,-4.1
2019-02-06T03:16:02.918Z,-4.1
2019-02-06T03:17:03.674Z,-4.2
2019-02-06T03:18:03.693Z,-4.2
2019-02-06T03:19:03.392Z,-4.2
2019-02-06T03:20:03.228Z,-4.3
2019-02-06T03:21:03.588Z,-4.3
2019-02-06T03:22:03.517Z,-4.2
2019-02-06T03:23:02.837Z,-4.2
2019-02-06T03:24:03.603Z,-4.1
2019-02-06T03:25:03.332Z,-4.1
2019-02-06T03:26:02.687Z,-4.1
2019-02-06T03:27:03.535Z,-4.1
2019-02-06T03:28:02.911Z,-4.1
2019-02-06T03:29:03.557Z,-4.1
2019-02-06T03:30:03.462Z,-4.1
2019-02-06T03:31:02.966Z,-4.1
2019-02-06T03:32:03.770Z,-4
2019-02-06T03:33:03.237Z,-4
2019-02-06T03:34:05.311Z,-4
2019-02-06T03:35:02.975Z,-4
2019-02-06T03:36:03.755Z,-4.1
2019-02-06T03:37:04.103Z,-4.3
2019-02-06T03:38:03.390Z,-4.3
2019-02-06T03:39:03.464Z,-4.4
2019-02-06T03:40:03.042Z,-4.3
2019-02-06T03:41:03.517Z,-4.2
2019-02-06T03:42:03.605Z,-4.2
2019-02-06T03:43:02.985Z,-4.1
2019-02-06T03:44:03.717Z,-4.2
2019-02-06T03:45:03.063Z,-4.1
2019-02-06T03:46:02.978Z,-4.1
2019-02-06T03:47:03.900Z,-4.1
2019-02-06T03:48:03.143Z,-4.1
2019-02-06T03:49:03.246Z,-4.3
2019-02-06T03:50:02.975Z,-4.3
2019-02-06T03:51:03.387Z,-4.3
2019-02-06T03:52:04.027Z,-4.3
2019-02-06T03:53:02.221Z,-4.3
2019-02-06T03:54:03.687Z,-4.3
2019-02-06T03:55:03.776Z,-4.3
2019-02-06T03:56:03.615Z,-4.3
2019-02-06T03:57:02.920Z,-4.3
2019-02-06T03:58:03.684Z,-4.3
2019-02-06T03:59:03.687Z,-4.3
2019-02-06T04:00:03.462Z,-4.2
2019-02-06T04:01:02.909Z,-4.3
2019-02-06T04:02:02.556Z,-4.3
2019-02-06T04:03:03.645Z,-4.3
2019-02-06T04:04:03.120Z,-4.3
2019-02-06T04:05:03.109Z,-4.3
2019-02-06T04:06:03.430Z,-4.3
2019-02-06T04:07:04.118Z,-4.3
2019-02-06T04:08:03.069Z,-4.3
2019-02-06T04:09:03.214Z,-4.3
2019-02-06T04:10:03.027Z,-4.3
2019-02-06T04:11:03.454Z,-4.3
2019-02-06T04:12:02.963Z,-4.3
2019-02-06T04:13:02.808Z,-4.3
2019-02-06T04:14:03.126Z,-4.4
2019-02-06T04:15:04.276Z,-4.4
2019-02-06T04:16:02.716Z,-4.4
2019-02-06T04:17:03.371Z,-4.4
2019-02-06T04:18:02.834Z,-4.4
2019-02-06T04:19:03.345Z,-4.6
2019-02-06T04:20:03.122Z,-4.6
2019-02-06T04:21:02.714Z,-4.4
2019-02-06T04:22:02.797Z,-4.4
2019-02-06T04:23:03.495Z,-4.3
2019-02-06T04:24:03.277Z,-4.4
2019-02-06T04:25:02.889Z,-4.3
2019-02-06T04:26:03.495Z,-4.3
2019-02-06T04:27:02.688Z,-4.3
2019-02-06T04:28:03.594Z,-4.4
2019-02-06T04:29:03.781Z,-4.4
2019-02-06T04:30:03.174Z,-4.4
2019-02-06T04:31:03.686Z,-4.4
2019-02-06T04:32:02.995Z,-4.3
2019-02-06T04:33:03.363Z,-4.4
2019-02-06T04:34:03.358Z,-4.4
2019-02-06T04:35:02.891Z,-4.4
2019-02-06T04:36:03.427Z,-4.4
2019-02-06T04:37:07.269Z,-4.4
2019-02-06T04:38:03.591Z,-4.4
2019-02-06T04:39:02.755Z,-4.4
2019-02-06T04:40:02.953Z,-4.4
2019-02-06T04:41:03.157Z,-4.4
2019-02-06T04:42:03.086Z,-4.4
2019-02-06T04:43:03.474Z,-4.4
2019-02-06T04:44:02.996Z,-4.3
2019-02-06T04:45:03.097Z,-4.3
2019-02-06T04:46:03.812Z,-4.4
2019-02-06T04:47:02.957Z,-4.3
2019-02-06T04:48:03.360Z,-4.3
2019-02-06T04:49:02.678Z,-4.3
2019-02-06T04:50:03.363Z,-4.4
2019-02-06T04:51:03.328Z,-4.4
2019-02-06T04:52:03.765Z,-4.4
2019-02-06T04:53:03.488Z,-4.4
2019-02-06T04:54:02.953Z,-4.3
2019-02-06T04:55:03.362Z,-4.4
2019-02-06T04:56:03.004Z,-4.4
2019-02-06T04:57:03.391Z,-4.5
2019-02-06T04:58:03.458Z,-4.4
2019-02-06T04:59:03.652Z,-4.3
2019-02-06T05:00:03.558Z,-4.4
2019-02-06T05:01:03.441Z,-4.3
2019-02-06T05:02:02.922Z,-4.3
2019-02-06T05:03:03.376Z,-4.4
2019-02-06T05:04:03.078Z,-4.4
2019-02-06T05:05:03.035Z,-4.4
2019-02-06T05:06:03.557Z,-4.4
2019-02-06T05:07:02.988Z,-4.5
2019-02-06T05:08:03.424Z,-4.6
2019-02-06T05:09:03.800Z,-4.6
2019-02-06T05:10:03.429Z,-4.6
2019-02-06T05:11:03.541Z,-4.6
2019-02-06T05:12:03.593Z,-4.6
2019-02-06T05:13:02.710Z,-4.6
2019-02-06T05:14:03.080Z,-4.6
2019-02-06T05:15:02.819Z,-4.6
2019-02-06T05:16:03.494Z,-4.6
2019-02-06T05:17:02.890Z,-4.6
2019-02-06T05:18:03.437Z,-4.6
2019-02-06T05:19:02.803Z,-4.6
2019-02-06T05:20:03.386Z,-4.7
2019-02-06T05:21:03.703Z,-4.7
2019-02-06T05:22:03.709Z,-4.7
2019-02-06T05:23:03.234Z,-4.6
2019-02-06T05:24:04.125Z,-4.7
2019-02-06T05:25:03.757Z,-4.6
2019-02-06T05:26:03.542Z,-4.6
2019-02-06T05:27:03.679Z,-4.6
2019-02-06T05:28:03.218Z,-4.6
2019-02-06T05:29:02.967Z,-4.7
2019-02-06T05:30:03.479Z,-4.7
2019-02-06T05:31:03.953Z,-4.6
2019-02-06T05:32:02.522Z,-4.6
2019-02-06T05:33:03.610Z,-4.6
2019-02-06T05:34:04.084Z,-4.6
2019-02-06T05:35:03.637Z,-4.5
2019-02-06T05:36:03.112Z,-4.5
2019-02-06T05:37:03.097Z,-4.5
2019-02-06T05:38:02.892Z,-4.5
2019-02-06T05:39:04.022Z,-4.4
2019-02-06T05:40:03.259Z,-4.4
2019-02-06T05:41:03.273Z,-4.4
2019-02-06T05:42:03.694Z,-4.4
2019-02-06T05:43:03.777Z,-4.4
2019-02-06T05:44:03.762Z,-4.5
2019-02-06T05:45:02.842Z,-4.5
2019-02-06T05:46:03.599Z,-4.5
2019-02-06T05:47:03.695Z,-4.5
2019-02-06T05:48:03.761Z,-4.5
2019-02-06T05:49:03.446Z,-4.4
2019-02-06T05:50:03.041Z,-4.4
2019-02-06T05:51:03.099Z,-4.4
2019-02-06T05:52:03.041Z,-4.5
2019-02-06T05:53:02.751Z,-4.5
2019-02-06T05:54:02.939Z,-4.6
2019-02-06T05:55:05.230Z,-4.4
2019-02-06T05:56:03.406Z,-4.5
2019-02-06T05:57:02.711Z,-4.5
2019-02-06T05:58:03.253Z,-4.6
2019-02-06T05:59:03.753Z,-4.6
2019-02-06T06:00:03.607Z,-4.6
2019-02-06T06:01:03.854Z,-4.6
2019-02-06T06:02:03.252Z,-4.7
2019-02-06T06:03:03.202Z,-4.7
2019-02-06T06:04:03.136Z,-4.6
2019-02-06T06:05:03.130Z,-4.6
2019-02-06T06:06:03.359Z,-4.6
2019-02-06T06:07:03.511Z,-4.6
2019-02-06T06:08:02.887Z,-4.6
2019-02-06T06:09:03.009Z,-4.6
2019-02-06T06:10:03.624Z,-4.5
2019-02-06T06:11:03.175Z,-4.4
2019-02-06T06:12:03.343Z,-4.6
2019-02-06T06:13:03.693Z,-4.4
2019-02-06T06:14:03.279Z,-4.5
2019-02-06T06:15:03.507Z,-4.5
2019-02-06T06:16:04.309Z,-4.6
2019-02-06T06:17:03.530Z,-4.6
2019-02-06T06:18:03.313Z,-4.6
2019-02-06T06:19:03.615Z,-4.6
2019-02-06T06:20:03.582Z,-4.6
2019-02-06T06:21:03.627Z,-4.6
2019-02-06T06:22:03.606Z,-4.5
2019-02-06T06:23:03.470Z,-4.5
2019-02-06T06:24:02.871Z,-4.4
2019-02-06T06:25:03.305Z,-4.5
2019-02-06T06:26:03.364Z,-4.5
2019-02-06T06:27:03.889Z,-4.6
2019-02-06T06:28:03.244Z,-4.6
2019-02-06T06:29:03.001Z,-4.6
2019-02-06T06:30:03.627Z,-4.5
2019-02-06T06:31:03.950Z,-4.6
2019-02-06T06:32:03.048Z,-4.7
2019-02-06T06:33:03.146Z,-4.7
2019-02-06T06:34:03.148Z,-4.6
2019-02-06T06:35:03.304Z,-4.6
2019-02-06T06:36:03.091Z,-4.6
2019-02-06T06:37:03.712Z,-4.6
2019-02-06T06:38:03.262Z,-4.6
2019-02-06T06:39:03.468Z,-4.6
2019-02-06T06:40:03.511Z,-4.6
2019-02-06T06:41:03.373Z,-4.6
2019-02-06T06:42:03.148Z,-4.6
2019-02-06T06:43:03.809Z,-4.6
2019-02-06T06:44:03.629Z,-4.5
2019-02-06T06:45:02.907Z,-4.6
2019-02-06T06:46:03.792Z,-4.5
2019-02-06T06:47:03.118Z,-4.5
2019-02-06T06:48:03.555Z,-4.6
2019-02-06T06:49:03.295Z,-4.6
2019-02-06T06:50:02.781Z,-4.6
2019-02-06T06:51:03.743Z,-4.6
2019-02-06T06:52:04.233Z,-4.5
2019-02-06T06:53:02.898Z,-4.5
2019-02-06T06:54:03.818Z,-4.6
2019-02-06T06:55:03.269Z,-4.4
2019-02-06T06:56:03.592Z,-4.6
2019-02-06T06:57:03.182Z,-4.6
2019-02-06T06:58:02.962Z,-4.6
2019-02-06T06:59:03.408Z,-4.6
2019-02-06T07:00:03.265Z,-4.6
2019-02-06T07:01:03.157Z,-4.5
2019-02-06T07:02:03.040Z,-4.6
2019-02-06T07:03:03.351Z,-4.6
2019-02-06T07:04:03.162Z,-4.6
2019-02-06T07:05:05.919Z,-4.7
2019-02-06T07:06:03.730Z,-4.7
2019-02-06T07:07:02.768Z,-4.8
2019-02-06T07:08:13.642Z,-4.8
2019-02-06T07:09:04.130Z,-4.7
2019-02-06T07:10:03.669Z,-4.7
2019-02-06T07:11:02.978Z,-4.7
2019-02-06T07:12:03.750Z,-4.6
2019-02-06T07:13:03.658Z,-4.7
2019-02-06T07:14:03.166Z,-4.7
2019-02-06T07:15:02.716Z,-4.7
2019-02-06T07:16:02.780Z,-4.7
2019-02-06T07:17:03.688Z,-4.6
2019-02-06T07:18:03.117Z,-4.6
2019-02-06T07:19:03.451Z,-4.6
2019-02-06T07:20:03.319Z,-4.7
2019-02-06T07:21:02.935Z,-4.7
2019-02-06T07:22:03.700Z,-4.6
2019-02-06T07:23:03.683Z,-4.6
2019-02-06T07:24:03.504Z,-4.7
2019-02-06T07:25:03.241Z,-4.7
2019-02-06T07:26:02.715Z,-4.7
2019-02-06T07:27:03.483Z,-4.6
2019-02-06T07:28:03.223Z,-4.6
2019-02-06T07:29:02.852Z,-4.5
2019-02-06T07:30:03.317Z,-4.5
2019-02-06T07:31:02.929Z,-4.4
2019-02-06T07:32:03.900Z,-4.6
2019-02-06T07:33:03.452Z,-4.6
2019-02-06T07:34:03.349Z,-4.6
2019-02-06T07:35:03.525Z,-4.6
2019-02-06T07:36:02.987Z,-4.5
2019-02-06T07:37:03.343Z,-4.4
2019-02-06T07:38:03.267Z,-4.4
2019-02-06T07:39:02.506Z,-4.4
2019-02-06T07:40:04.341Z,-4.3
2019-02-06T07:41:03.101Z,-4.2
2019-02-06T07:42:03.146Z,-4.3
2019-02-06T07:43:03.009Z,-4.3
2019-02-06T07:44:03.045Z,-4.2
2019-02-06T07:45:03.008Z,-4.3
2019-02-06T07:46:03.648Z,-4.3
2019-02-06T07:47:03.488Z,-4.3
2019-02-06T07:48:03.071Z,-4.3
2019-02-06T07:49:02.956Z,-4.3
2019-02-06T07:50:03.659Z,-4.3
2019-02-06T07:51:02.868Z,-4.2
2019-02-06T07:52:03.201Z,-4.3
2019-02-06T07:53:02.702Z,-4.3
2019-02-06T07:54:03.268Z,-4.4
2019-02-06T07:55:03.677Z,-4.4
2019-02-06T07:56:03.065Z,-4.4
2019-02-06T07:57:03.605Z,-4.3
2019-02-06T07:58:03.121Z,-4.2
2019-02-06T07:59:02.663Z,-4.1
2019-02-06T08:00:03.410Z,-4.1
2019-02-06T08:01:03.293Z,-4.1
2019-02-06T08:02:03.808Z,-4.1
2019-02-06T08:03:02.733Z,-4.1
2019-02-06T08:04:03.155Z,-4.2
2019-02-06T08:05:02.993Z,-4.4
2019-02-06T08:06:02.965Z,-4.4
2019-02-06T08:07:03.493Z,-4.4
2019-02-06T08:08:03.564Z,-4.3
2019-02-06T08:09:03.176Z,-4.3
2019-02-06T08:10:03.826Z,-4.4
2019-02-06T08:11:03.355Z,-4.4
2019-02-06T08:12:03.265Z,-4.4
2019-02-06T08:13:03.255Z,-4.3
2019-02-06T08:14:02.778Z,-4.4
2019-02-06T08:15:03.266Z,-4.3
2019-02-06T08:16:03.132Z,-4.3
2019-02-06T08:17:02.818Z,-4.1
2019-02-06T08:18:03.381Z,-4.1
2019-02-06T08:19:03.421Z,-4
2019-02-06T08:20:02.993Z,-4
2019-02-06T08:21:03.056Z,-4
2019-02-06T08:22:03.237Z,-3.9
2019-02-06T08:23:03.347Z,-3.8
2019-02-06T08:24:03.892Z,-3.9
2019-02-06T08:25:04.259Z,-3.9
2019-02-06T08:26:03.426Z,-3.9
2019-02-06T08:27:03.422Z,-4.1
2019-02-06T08:28:03.389Z,-4.1
2019-02-06T08:29:03.185Z,-4.2
2019-02-06T08:30:03.373Z,-4.2
2019-02-06T08:31:03.717Z,-4.3
2019-02-06T08:32:03.267Z,-4.3
2019-02-06T08:33:03.935Z,-4.2
2019-02-06T08:34:03.233Z,-4.2
2019-02-06T08:35:02.889Z,-4.3
2019-02-06T08:36:03.354Z,-4.1
2019-02-06T08:37:03.147Z,-3.9
2019-02-06T08:38:03.781Z,-3.9
2019-02-06T08:39:02.676Z,-4.1
2019-02-06T08:40:03.417Z,-4.1
2019-02-06T08:41:03.887Z,-3.9
2019-02-06T08:42:03.648Z,-3.9
2019-02-06T08:43:02.778Z,-3.8
2019-02-06T08:45:27.477Z,-3.7
2019-02-06T08:45:27.486Z,-3.7
2019-02-06T08:46:03.745Z,-3.7
2019-02-06T08:47:03.620Z,-4.1
2019-02-06T08:48:03.860Z,-4.1
2019-02-06T08:49:03.374Z,-4.2
2019-02-06T08:50:03.499Z,-4.2
2019-02-06T08:51:03.537Z,-4.1
2019-02-06T08:52:02.588Z,-4.1
2019-02-06T08:53:03.268Z,-4.2
2019-02-06T08:54:03.122Z,-4.2
2019-02-06T08:55:02.935Z,-4.1
2019-02-06T08:56:04.343Z,-4.1
2019-02-06T08:57:03.573Z,-4.1
2019-02-06T08:58:03.455Z,-4.1
2019-02-06T08:59:02.827Z,-3.9
2019-02-06T09:00:03.202Z,-3.9
2019-02-06T09:01:03.205Z,-3.9
2019-02-06T09:02:03.426Z,-3.8
2019-02-06T09:03:03.058Z,-3.6
2019-02-06T09:04:03.266Z,-3.5
2019-02-06T09:05:03.547Z,-3.5
2019-02-06T09:06:03.171Z,-3.6
2019-02-06T09:07:03.574Z,-3.6
2019-02-06T09:08:03.185Z,-3.5
2019-02-06T09:09:03.358Z,-3.8
2019-02-06T09:10:03.351Z,-3.9
2019-02-06T09:11:03.741Z,-3.5
2019-02-06T09:12:03.588Z,-3.4
2019-02-06T09:13:03.451Z,-3.6
2019-02-06T09:14:03.732Z,-3.5
2019-02-06T09:15:03.243Z,-3.4
2019-02-06T09:16:03.463Z,-3.4
2019-02-06T09:17:03.073Z,-3.4
2019-02-06T09:18:03.711Z,-3.7
2019-02-06T09:19:03.785Z,-3.9
2019-02-06T09:20:03.299Z,-3.9
2019-02-06T09:21:03.297Z,-3.9
2019-02-06T09:22:03.598Z,-3.9
2019-02-06T09:23:02.806Z,-4.1
2019-02-06T09:24:03.502Z,-4.2
2019-02-06T09:25:02.967Z,-4.3
2019-02-06T09:26:03.649Z,-4.3
2019-02-06T09:27:03.791Z,-4.4
2019-02-06T09:28:02.858Z,-4.1
2019-02-06T09:29:02.089Z,-3.9
2019-02-06T09:30:03.455Z,-4
2019-02-06T09:31:03.357Z,-4.2
2019-02-06T09:32:03.736Z,-4.1
2019-02-06T09:33:03.674Z,-4.1
2019-02-06T09:34:03.581Z,-4.1
2019-02-06T09:35:03.130Z,-4.1
2019-02-06T09:36:03.581Z,-4.1
2019-02-06T09:37:05.422Z,-4.2
2019-02-06T09:38:03.730Z,-4.1
2019-02-06T09:39:12.309Z,-4.2
2019-02-06T09:40:03.155Z,-4.1
2019-02-06T09:41:03.160Z,-3.8
2019-02-06T09:42:03.197Z,-3.9
2019-02-06T09:43:02.981Z,-3.9
2019-02-06T09:44:03.741Z,-3.9
2019-02-06T09:45:03.922Z,-3.8
2019-02-06T09:46:02.843Z,-3.8
2019-02-06T09:47:03.607Z,-3.8
2019-02-06T09:48:03.259Z,-3.8
2019-02-06T09:49:04.015Z,-3.6
2019-02-06T09:50:03.693Z,-3.6
2019-02-06T09:51:02.973Z,-3.6
2019-02-06T09:52:03.498Z,-3.6
2019-02-06T09:53:02.917Z,-3.6
2019-02-06T09:54:03.476Z,-3.5
2019-02-06T09:55:03.355Z,-3.6
2019-02-06T09:56:03.296Z,-3.3
2019-02-06T09:57:03.837Z,-3.7
2019-02-06T09:58:03.368Z,-3.7
2019-02-06T09:59:03.777Z,-3.8
2019-02-06T10:00:03.408Z,-3.8
2019-02-06T10:01:02.857Z,-3.9
2019-02-06T10:02:02.818Z,-3.8
2019-02-06T10:03:03.092Z,-3.7
2019-02-06T10:04:03.615Z,-3.7
2019-02-06T10:05:03.567Z,-3.7
2019-02-06T10:06:03.441Z,-3.8
2019-02-06T10:07:03.295Z,-3.8
2019-02-06T10:08:03.349Z,-3.8
2019-02-06T10:09:02.959Z,-3.9
2019-02-06T10:10:02.994Z,-3.9
2019-02-06T10:11:03.401Z,-3.9
2019-02-06T10:12:03.995Z,-3.8
2019-02-06T10:13:03.052Z,-3.6
2019-02-06T10:14:02.964Z,-3.6
2019-02-06T10:15:03.543Z,-3.3
2019-02-06T10:16:03.245Z,-3.3
2019-02-06T10:17:02.843Z,-3.5
2019-02-06T10:18:03.603Z,-3.6
2019-02-06T10:19:03.702Z,-3.4
2019-02-06T10:20:02.892Z,-3.3
2019-02-06T10:21:02.933Z,-3.2
2019-02-06T10:22:02.877Z,-3.1
2019-02-06T10:23:03.105Z,-2.9
2019-02-06T10:24:03.822Z,-3.3
2019-02-06T10:25:03.274Z,-3.8
2019-02-06T10:26:03.342Z,-3.5
2019-02-06T10:27:03.590Z,-3.6
2019-02-06T10:28:03.204Z,-3.4
2019-02-06T10:29:02.791Z,-3.4
2019-02-06T10:30:04.215Z,-3.3
2019-02-06T10:31:03.702Z,-3.4
2019-02-06T10:32:03.609Z,-3.5
2019-02-06T10:33:03.069Z,-3.3
2019-02-06T10:34:03.674Z,-3.4
2019-02-06T10:35:03.932Z,-3.3
2019-02-06T10:36:03.549Z,-3.2
2019-02-06T10:37:03.587Z,-3.1
2019-02-06T10:38:02.920Z,-3.4
2019-02-06T10:39:03.599Z,-3.5
2019-02-06T10:40:03.882Z,-3.6
2019-02-06T10:41:04.870Z,-3.6
2019-02-06T10:42:03.759Z,-3.4
2019-02-06T10:43:03.530Z,-3.3
2019-02-06T10:44:03.275Z,-3
2019-02-06T10:45:03.631Z,-2.9
2019-02-06T10:46:03.099Z,-2.9
2019-02-06T10:47:03.272Z,-3.1
2019-02-06T10:48:03.428Z,-2.8
2019-02-06T10:49:03.638Z,-2.6
2019-02-06T10:50:03.970Z,-2.4
2019-02-06T10:51:03.688Z,-2.6
2019-02-06T10:52:02.914Z,-2.9
2019-02-06T10:53:03.560Z,-2.8
2019-02-06T10:54:03.045Z,-2.5
2019-02-06T10:55:03.344Z,-2.8
2019-02-06T10:56:03.656Z,-2.8
2019-02-06T10:57:03.280Z,-2.5
2019-02-06T10:58:03.027Z,-2.6
2019-02-06T10:59:03.527Z,-2.7
2019-02-06T11:00:03.309Z,-2.7
2019-02-06T11:01:02.820Z,-2.6
2019-02-06T11:02:02.809Z,-2.6
2019-02-06T11:03:02.855Z,-3
2019-02-06T11:04:02.836Z,-2.8
2019-02-06T11:05:03.465Z,-2.9
2019-02-06T11:06:03.476Z,-3.1
2019-02-06T11:07:03.175Z,-2.9
2019-02-06T11:08:03.255Z,-2.6
2019-02-06T11:09:03.120Z,-2.4
2019-02-06T11:10:02.947Z,-2.6
2019-02-06T11:11:03.789Z,-2.6
2019-02-06T11:12:02.879Z,-2.6
2019-02-06T11:13:04.193Z,-2.5
2019-02-06T11:14:03.320Z,-2.5
2019-02-06T11:15:03.303Z,-2.1
2019-02-06T11:16:03.512Z,-2.2
2019-02-06T11:17:03.718Z,-2.6
2019-02-06T11:18:03.028Z,-2.8
2019-02-06T11:19:03.188Z,-2.3
2019-02-06T11:20:03.662Z,-2.3
2019-02-06T11:21:03.017Z,-2.3
2019-02-06T11:22:03.474Z,-2.3
2019-02-06T11:23:02.875Z,-2.1
2019-02-06T11:24:03.235Z,-2.4
2019-02-06T11:25:04.850Z,-2.6
2019-02-06T11:26:02.794Z,-2.5
2019-02-06T11:27:03.424Z,-2.8
2019-02-06T11:28:03.999Z,-2.8
2019-02-06T11:29:02.988Z,-2.8
2019-02-06T11:30:03.443Z,-2.8
2019-02-06T11:31:03.391Z,-2.5
2019-02-06T11:32:03.112Z,-2.7
2019-02-06T11:33:03.580Z,-2.8
2019-02-06T11:34:02.804Z,-2.4
2019-02-06T11:35:03.687Z,-2.2
2019-02-06T11:36:03.924Z,-2.3
2019-02-06T11:37:02.932Z,-2.2
2019-02-06T11:38:03.151Z,-2.2
2019-02-06T11:39:03.104Z,-2.3
2019-02-06T11:40:03.495Z,-2.2
2019-02-06T11:41:03.233Z,-2.4
2019-02-06T11:42:03.142Z,-2.5
2019-02-06T11:43:03.284Z,-2.6
2019-02-06T11:44:02.719Z,-2.5
2019-02-06T11:45:03.015Z,-2.6
2019-02-06T11:46:03.616Z,-2.7
2019-02-06T11:47:03.037Z,-2.9
2019-02-06T11:48:03.344Z,-2.9
2019-02-06T11:49:03.372Z,-2.9
2019-02-06T11:50:02.833Z,-2.7
2019-02-06T11:51:03.575Z,-2.6
2019-02-06T11:52:02.770Z,-2.4
2019-02-06T11:53:03.552Z,-2.2
2019-02-06T11:54:03.424Z,-2.2
2019-02-06T11:55:03.304Z,-2.3
2019-02-06T11:56:03.488Z,-2.1
2019-02-06T11:57:02.968Z,-2
2019-02-06T11:58:03.195Z,-2
2019-02-06T11:59:03.754Z,-1.9
2019-02-06T12:00:03.447Z,-1.9
2019-02-06T12:01:03.721Z,-1.9
2019-02-06T12:02:03.102Z,-2.1
2019-02-06T12:03:03.352Z,-2.1
2019-02-06T12:04:03.748Z,-2.1
2019-02-06T12:05:03.019Z,-2.6
2019-02-06T12:06:03.499Z,-2.7
2019-02-06T12:07:03.412Z,-2.5
2019-02-06T12:08:03.597Z,-2.3
2019-02-06T12:09:03.326Z,-2.5
2019-02-06T12:10:10.419Z,-2.3
2019-02-06T12:11:02.871Z,-2.4
2019-02-06T12:12:03.569Z,-2.3
2019-02-06T12:13:03.504Z,-2.5
2019-02-06T12:14:03.478Z,-2.5
2019-02-06T12:15:03.085Z,-2.3
2019-02-06T12:16:03.726Z,-2.4
2019-02-06T12:17:03.735Z,-2.4
2019-02-06T12:18:02.860Z,-2.5
2019-02-06T12:19:03.131Z,-2.5
2019-02-06T12:20:03.388Z,-2.5
2019-02-06T12:21:03.898Z,-2.4
2019-02-06T12:22:03.014Z,-2.4
2019-02-06T12:23:03.088Z,-2.7
2019-02-06T12:24:02.814Z,-2.8
2019-02-06T12:25:03.728Z,-2.8
2019-02-06T12:26:03.370Z,-2.9
2019-02-06T12:27:02.959Z,-2.6
2019-02-06T12:28:05.434Z,-2.5
2019-02-06T12:29:03.494Z,-2.4
2019-02-06T12:30:03.148Z,-2.4
2019-02-06T12:31:03.633Z,-2.4
2019-02-06T12:32:03.154Z,-2.4
2019-02-06T12:33:02.849Z,-2.3
2019-02-06T12:34:03.302Z,-2.5
2019-02-06T12:35:03.103Z,-2.3
2019-02-06T12:36:03.658Z,-2.3
2019-02-06T12:37:02.964Z,-2.5
2019-02-06T12:38:02.964Z,-2.2
2019-02-06T12:39:03.211Z,-2
2019-02-06T12:40:03.061Z,-2.1
2019-02-06T12:41:03.155Z,-2.3
2019-02-06T12:42:02.774Z,-2.3
2019-02-06T12:43:03.870Z,-2.2
2019-02-06T12:44:03.209Z,-2.1
2019-02-06T12:45:02.722Z,-1.9
2019-02-06T12:46:03.161Z,-2.1
2019-02-06T12:47:03.512Z,-1.9
2019-02-06T12:48:03.001Z,-1.8
2019-02-06T12:49:02.980Z,-1.8
2019-02-06T12:50:03.691Z,-1.7
2019-02-06T12:51:03.201Z,-1.7
2019-02-06T12:52:03.463Z,-1.7
2019-02-06T12:53:02.785Z,-1.7
2019-02-06T12:54:02.915Z,-1.9
2019-02-06T12:55:02.795Z,-1.8
2019-02-06T12:56:02.995Z,-1.6
2019-02-06T12:57:02.971Z,-1.8
2019-02-06T12:58:04.277Z,-1.8
2019-02-06T12:59:02.975Z,-2.1
2019-02-06T13:00:02.755Z,-2.2
2019-02-06T13:01:03.465Z,-2.2
2019-02-06T13:02:03.558Z,-2.1
2019-02-06T13:03:03.327Z,-2
2019-02-06T13:04:03.175Z,-2
2019-02-06T13:05:04.099Z,-1.9
2019-02-06T13:06:03.277Z,-2.1
2019-02-06T13:07:03.312Z,-2.1
2019-02-06T13:08:03.477Z,-2.1
2019-02-06T13:09:03.211Z,-2.1
2019-02-06T13:10:03.601Z,-2.1
2019-02-06T13:11:02.951Z,-2.1
2019-02-06T13:12:03.052Z,-1.9
2019-02-06T13:13:03.732Z,-1.9
2019-02-06T13:14:03.541Z,-1.7
2019-02-06T13:15:03.600Z,-1.8
2019-02-06T13:16:03.281Z,-1.8
2019-02-06T13:17:03.332Z,-2
2019-02-06T13:18:03.353Z,-2.1
2019-02-06T13:19:02.920Z,-1.9
2019-02-06T13:20:03.093Z,-1.9
2019-02-06T13:21:02.694Z,-1.9
2019-02-06T13:22:03.121Z,-1.8